Airfield :







YOU CAN JOIN US ON...

 
LOGIN :

Register | Disclaimer

   EN    FR    IT 

 









Legend :    VFR   Marginal VFR   IFR   Intensive IFR   Very Intensive IFR
Visi :
Ceiling :
>= 8 km
>= 3000ft
5 to 8 km
1000 to 3000 ft
1500m to 5 km
500 to 1000 ft
800 to 1500m
200 to 500 ft
< 800m
< 200 ft
Symbols :   Thunderstorms  Fog  Heavy snow  Heavy precipitations  Wind > 20 kt






- Airport Elevation : 59 ft
- IATA code : PBM


SMJP - J.A. Pengel Int.

CURRENT METAR :
  • 250100Z 03003KT CAVOK 27/24 Q1016 NOSIG

EXPIRED METARs :
  • 250000Z 08004KT 9999 FEW008 27/24 Q1015 NOSIG
  • 242300Z VRB05KT 9999 FEW008 FEW015CB 28/23 Q1014 NOSIG
  • 242200Z 35008KT 9999 FEW010 FEW015CB 29/23 Q1014 NOSIG
  • 242100Z 01008KT 9999 FEW010 FEW018CB 32/22 Q1013 NOSIG

TAF TAF SMJP
Valid from the 25 at 00:00 until the 26 at 00:00 UTC


242200Z 2500/2524 VRB02KT 9999 FEW010 SCT020 TX33/2517Z TN24/2509Z
FM251200 13007KT 9999 SCT015
TEMPO 2518/2520 4000 TSRA FEW010 FEW015CB SCT020
SMPM FIR / South America



MET'MAP, your aeronautical weather chart ! - Copyright ORBIFLY December 2007 - Disclaimer

ORBIFLY MET'MAP TEAM :

Programming & Development : Alexandra Zaïnal
Original concept : Baudouin d'Aumeries
Technical & hardware support : Manuel Goepfert
Assistance : Marc-Olivier Méhu




SOURCES & CREDITS :

   NOAA